Time;durP1;ratioP1;P1;durP2;ratioP2;P2;SDS_P1;SDS_P2;PMS_P1;PMS_P2;Temp;Humidity;BMP_temperature;BMP_pressure;BME280_temperature;BME280_humidity;BME280_pressure;Samples;Min_cycle;Max_cycle;Signal;HPM_P1;HPM_P2
2022/01/19 00:01:34;;;;;;;23.48;5.55;;;;;;;-2.05;85.41;102188.66;4501227;31;20525;-66
2022/01/19 00:04:02;;;;;;;17.02;5.25;;;;;;;-1.98;85.53;102191.78;4501226;31;20158;-66
2022/01/19 00:06:29;;;;;;;18.58;5.22;;;;;;;-2.06;84.70;102189.44;4501114;31;20501;-66
2022/01/19 00:08:57;;;;;;;24.15;6.57;;;;;;;-2.09;85.27;102187.53;4501494;31;20463;-67
2022/01/19 00:11:24;;;;;;;26.60;6.10;;;;;;;-1.97;84.92;102190.09;4501316;31;20183;-66
2022/01/19 00:13:52;;;;;;;16.15;5.50;;;;;;;-2.07;85.80;102191.12;4501245;31;20137;-66
2022/01/19 00:16:20;;;;;;;18.62;5.53;;;;;;;-2.02;85.58;102194.91;4501195;31;20083;-66
2022/01/19 00:18:48;;;;;;;25.45;6.47;;;;;;;-2.12;85.25;102186.44;4501056;31;20088;-66
2022/01/19 00:21:15;;;;;;;24.75;5.65;;;;;;;-2.24;86.85;102196.84;4501146;31;20091;-66
2022/01/19 00:23:42;;;;;;;22.55;6.28;;;;;;;-2.23;86.93;102198.63;4501174;31;20542;-66
2022/01/19 00:26:10;;;;;;;28.77;6.65;;;;;;;-2.14;86.44;102191.50;4500925;31;20544;-66
2022/01/19 00:28:38;;;;;;;15.75;6.22;;;;;;;-2.18;86.36;102198.16;4500740;31;20099;-66
2022/01/19 00:31:05;;;;;;;13.68;6.28;;;;;;;-2.14;85.82;102208.69;4500788;31;20107;-66
2022/01/19 00:33:32;;;;;;;29.50;7.60;;;;;;;-2.21;85.01;102210.84;4500941;31;20222;-66
2022/01/19 00:35:59;;;;;;;16.30;5.43;;;;;;;-2.12;84.75;102220.00;4501002;31;20436;-66
2022/01/19 00:38:27;;;;;;;16.52;5.75;;;;;;;-1.92;84.74;102224.84;4500880;31;20436;-66
2022/01/19 00:40:55;;;;;;;19.05;5.75;;;;;;;-1.88;85.06;102215.63;4500754;31;20548;-66
2022/01/19 00:43:22;;;;;;;14.77;4.72;;;;;;;-1.93;86.25;102218.81;4500887;31;20190;-66
2022/01/19 00:45:50;;;;;;;19.27;7.07;;;;;;;-2.04;85.58;102208.53;4500636;31;20431;-66
2022/01/19 00:48:26;;;;;;;17.55;5.32;;;;;;;-2.22;86.88;102226.25;4500625;31;20096;-66
2022/01/19 00:50:56;;;;;;;23.48;6.22;;;;;;;-1.98;86.95;102233.09;4500494;31;20353;-66
2022/01/19 00:53:23;;;;;;;13.70;5.70;;;;;;;-1.99;85.68;102222.66;4500502;31;20154;-66
2022/01/19 00:55:51;;;;;;;21.95;6.07;;;;;;;-2.05;86.29;102217.97;4500391;31;20159;-66
2022/01/19 00:58:18;;;;;;;23.38;6.03;;;;;;;-2.20;85.38;102222.97;4500672;31;20106;-66
2022/01/19 01:00:46;;;;;;;24.45;7.10;;;;;;;-2.25;85.42;102231.19;4500628;31;20091;-66
2022/01/19 01:03:15;;;;;;;23.80;6.90;;;;;;;-2.47;87.79;102227.13;4501380;31;20127;-66
2022/01/19 01:05:44;;;;;;;17.12;6.43;;;;;;;-2.54;87.84;102214.59;4502820;31;20098;-66
2022/01/19 01:08:11;;;;;;;14.48;5.28;;;;;;;-2.55;87.27;102219.63;4502601;31;20156;-66
2022/01/19 01:10:43;;;;;;;22.10;6.80;;;;;;;-2.54;87.45;102222.31;4502651;31;20142;-66
2022/01/19 01:16:05;;;;;;;18.98;7.95;;;;;;;-2.57;86.94;102211.78;4502518;31;20100;-66
2022/01/19 01:18:34;;;;;;;21.02;8.07;;;;;;;-2.54;88.11;102214.59;4502830;31;20176;-66
2022/01/19 01:21:02;;;;;;;22.25;7.10;;;;;;;-2.67;89.02;102209.34;4502711;31;20111;-66
2022/01/19 01:23:32;;;;;;;20.92;7.40;;;;;;;-2.85;89.56;102202.87;4502555;31;20095;-66
2022/01/19 01:26:00;;;;;;;24.27;7.95;;;;;;;-2.88;89.71;102203.56;4502614;31;20454;-66
2022/01/19 01:28:27;;;;;;;26.15;7.97;;;;;;;-2.84;88.82;102202.09;4502277;31;20536;-66
2022/01/19 01:30:55;;;;;;;26.27;8.32;;;;;;;-2.89;88.54;102194.91;4502605;31;20502;-66
2022/01/19 01:33:22;;;;;;;19.30;7.57;;;;;;;-2.96;88.68;102178.91;4502637;31;20133;-66
2022/01/19 01:35:50;;;;;;;16.85;6.70;;;;;;;-2.85;87.77;102171.94;4502453;31;20110;-66
2022/01/19 01:38:18;;;;;;;22.65;8.05;;;;;;;-2.91;87.49;102162.94;4502411;31;20099;-66
2022/01/19 01:41:09;;;;;;;17.27;7.28;;;;;;;-3.03;88.11;102156.94;4502453;31;20152;-66
2022/01/19 01:43:37;;;;;;;17.87;7.35;;;;;;;-2.93;88.17;102164.53;4502629;31;20107;-66
2022/01/19 01:46:12;;;;;;;27.67;7.90;;;;;;;-2.89;88.10;102158.81;4502145;31;20118;-66
2022/01/19 01:48:45;;;;;;;27.52;7.47;;;;;;;-3.06;88.21;102156.72;4502405;31;20807;-66
2022/01/19 01:54:00;;;;;;;23.10;8.27;;;;;;;-2.96;89.01;102159.16;4502490;31;20528;-66
2022/01/19 01:56:27;;;;;;;14.52;6.28;;;;;;;-3.01;89.78;102164.75;4502410;31;20408;-66
2022/01/19 01:58:57;;;;;;;27.00;7.62;;;;;;;-3.14;90.27;102150.12;4502368;31;20118;-66
2022/01/19 02:01:31;;;;;;;30.58;8.40;;;;;;;-3.18;91.38;102155.81;4502271;31;20119;-66
2022/01/19 02:03:58;;;;;;;26.67;8.00;;;;;;;-3.15;91.19;102143.16;4502390;31;20380;-66
2022/01/19 02:06:33;;;;;;;26.08;7.40;;;;;;;-3.37;92.36;102144.19;4502201;31;20485;-66
2022/01/19 02:09:38;;;;;;;28.80;8.40;;;;;;;-3.34;92.78;102148.69;4502272;31;20083;-66
2022/01/19 02:23:09;;;;;;;23.70;8.70;;;;;;;-3.83;94.77;102139.03;4502223;31;20159;-66
2022/01/19 02:25:42;;;;;;;35.58;8.63;;;;;;;-3.85;95.33;102136.38;4502086;31;20103;-66
2022/01/19 02:41:38;;;;;;;25.40;7.72;;;;;;;-3.65;93.20;102106.91;4502033;31;20106;-66
2022/01/19 02:44:09;;;;;;;17.92;6.78;;;;;;;-3.62;92.31;102104.56;4501891;31;20159;-66
2022/01/19 02:49:27;;;;;;;24.15;8.40;;;;;;;-3.58;92.05;102091.09;4471784;31;20072;-66
2022/01/19 02:51:55;;;;;;;27.67;8.35;;;;;;;-3.62;91.02;102091.66;4501951;31;20087;-66
2022/01/19 02:54:24;;;;;;;19.98;8.18;;;;;;;-3.59;91.09;102096.16;4502065;31;20130;-66
2022/01/19 02:56:55;;;;;;;24.77;7.28;;;;;;;-3.58;90.56;102087.63;4502097;31;20435;-66
2022/01/19 03:06:31;;;;;;;24.63;7.15;;;;;;;-3.48;89.96;102088.41;4502049;31;20143;-66
2022/01/19 03:10:34;;;;;;;26.92;7.30;;;;;;;-3.39;88.38;102068.47;4502043;31;20067;-66
2022/01/19 03:13:03;;;;;;;26.62;7.35;;;;;;;-3.40;88.64;102076.06;4501920;31;20084;-66
2022/01/19 03:15:30;;;;;;;24.60;7.32;;;;;;;-3.37;87.87;102076.28;4501926;31;20088;-66
2022/01/19 03:17:59;;;;;;;27.95;7.45;;;;;;;-3.30;87.76;102070.78;4501674;31;20126;-66
2022/01/19 03:20:28;;;;;;;22.10;6.97;;;;;;;-3.14;86.58;102063.34;4501819;31;20468;-66
2022/01/19 03:23:03;;;;;;;21.48;7.25;;;;;;;-3.33;86.81;102057.66;4501858;31;20100;-66
2022/01/19 03:25:37;;;;;;;23.08;7.62;;;;;;;-3.42;87.52;102063.09;4501066;31;20446;-66
2022/01/19 03:28:05;;;;;;;18.05;7.10;;;;;;;-3.50;87.72;102056.47;4501758;31;20138;-66
2022/01/19 03:30:33;;;;;;;22.60;6.70;;;;;;;-3.40;88.17;102056.34;4501568;31;20496;-66
2022/01/19 03:33:01;;;;;;;20.65;6.55;;;;;;;-3.41;88.11;102062.28;4501736;31;20126;-66
2022/01/19 03:35:29;;;;;;;22.37;6.95;;;;;;;-3.27;89.76;102060.69;4501671;31;20159;-66
2022/01/19 03:37:56;;;;;;;29.60;7.50;;;;;;;-3.24;88.42;102050.59;4501558;31;20505;-66
2022/01/19 03:40:24;;;;;;;27.42;8.13;;;;;;;-3.24;90.01;102060.91;4501644;31;20173;-66
2022/01/19 03:42:51;;;;;;;26.55;6.50;;;;;;;-3.43;89.00;102060.37;4501600;31;20088;-66
2022/01/19 03:45:21;;;;;;;19.87;6.47;;;;;;;-3.62;89.70;102071.94;4501592;31;20095;-66
2022/01/19 03:48:06;;;;;;;24.73;6.97;;;;;;;-3.47;89.08;102064.41;4501672;31;20129;-66
2022/01/19 03:50:37;;;;;;;24.00;7.28;;;;;;;-3.47;88.17;102061.84;4501536;31;20080;-66
2022/01/19 03:53:04;;;;;;;21.05;7.10;;;;;;;-3.55;88.64;102054.38;4501354;31;20091;-66
2022/01/19 03:55:31;;;;;;;20.27;7.43;;;;;;;-3.52;88.30;102052.91;4501214;31;20099;-66
2022/01/19 03:57:59;;;;;;;19.35;7.60;;;;;;;-3.45;86.92;102055.12;4501283;31;20203;-66
2022/01/19 04:00:27;;;;;;;23.90;7.40;;;;;;;-3.58;87.46;102070.50;4501628;31;20118;-66
2022/01/19 04:02:57;;;;;;;21.15;7.37;;;;;;;-3.40;86.84;102061.50;4501499;31;20088;-66
2022/01/19 04:05:38;;;;;;;28.20;8.82;;;;;;;-3.42;87.18;102060.50;4501194;31;20575;-66
2022/01/19 04:08:06;;;;;;;21.20;7.57;;;;;;;-3.44;87.46;102051.75;4501288;31;20483;-66
2022/01/19 04:10:33;;;;;;;30.48;7.50;;;;;;;-3.39;87.27;102060.72;4501264;31;20087;-66
2022/01/19 04:13:23;;;;;;;22.35;7.53;;;;;;;-3.54;87.35;102056.16;4501403;31;20103;-66
2022/01/19 04:15:51;;;;;;;23.15;7.70;;;;;;;-3.57;88.05;102055.91;4501388;31;20100;-66
2022/01/19 04:18:19;;;;;;;19.40;8.13;;;;;;;-3.62;88.16;102065.91;4501191;31;20099;-66
2022/01/19 04:20:50;;;;;;;22.52;8.65;;;;;;;-3.80;89.13;102060.31;4500937;31;20711;-66
2022/01/19 04:23:22;;;;;;;27.48;9.88;;;;;;;-3.62;87.99;102056.50;4501321;31;20106;-66
2022/01/19 04:25:49;;;;;;;22.52;8.82;;;;;;;-3.56;87.23;102053.47;4500985;31;20126;-66
2022/01/19 04:28:16;;;;;;;32.75;9.88;;;;;;;-3.63;86.87;102056.41;4500734;31;20103;-66
2022/01/19 04:30:45;;;;;;;34.70;12.20;;;;;;;-3.73;87.51;102052.25;4486382;31;20148;-66
2022/01/19 04:33:22;;;;;;;41.72;13.15;;;;;;;-3.79;87.82;102045.75;4500958;31;20146;-66
2022/01/19 04:35:51;;;;;;;41.53;13.65;;;;;;;-3.88;87.87;102039.16;4500789;31;20134;-66
2022/01/19 05:03:23;;;;;;;33.47;12.25;;;;;;;-3.58;85.43;102018.06;4486998;31;20517;-66
2022/01/19 05:06:06;;;;;;;36.97;10.82;;;;;;;-3.57;85.40;102023.31;4487408;31;20156;-66
2022/01/19 05:08:54;;;;;;;31.55;10.93;;;;;;;-3.78;85.62;102014.97;4497014;31;20088;-66
2022/01/19 05:14:07;;;;;;;27.98;10.82;;;;;;;-3.90;85.79;102021.81;4500183;31;20087;-66
2022/01/19 05:16:34;;;;;;;34.17;12.73;;;;;;;-3.82;86.03;102024.94;4502363;31;20117;-66
2022/01/19 05:19:02;;;;;;;33.80;11.32;;;;;;;-3.89;85.57;102024.50;4502454;31;20095;-66
2022/01/19 05:21:30;;;;;;;31.58;11.43;;;;;;;-3.77;85.45;102021.03;4502166;31;20104;-66
2022/01/19 05:24:03;;;;;;;37.30;14.05;;;;;;;-3.98;86.04;102028.97;4502619;31;20658;-66
2022/01/19 05:26:32;;;;;;;39.95;13.88;;;;;;;-3.98;87.49;102028.09;4489836;31;20114;-66
2022/01/19 05:28:59;;;;;;;31.50;12.80;;;;;;;-3.72;85.73;102020.56;4486329;31;20388;-66
2022/01/19 05:31:26;;;;;;;30.65;13.10;;;;;;;-4.07;87.91;102028.28;4486399;31;20108;-65
2022/01/19 05:33:54;;;;;;;34.63;12.75;;;;;;;-4.05;87.67;102029.31;4486340;31;20080;-65
2022/01/19 05:36:22;;;;;;;37.45;12.57;;;;;;;-3.94;86.50;102025.84;4486473;31;20443;-66
2022/01/19 05:38:50;;;;;;;26.75;12.35;;;;;;;-4.17;87.20;102021.59;4486334;31;20161;-66
2022/01/19 05:41:21;;;;;;;41.85;13.10;;;;;;;-4.10;87.00;102023.84;4486504;31;20100;-65
2022/01/19 05:43:48;;;;;;;34.97;13.35;;;;;;;-4.13;87.02;102028.75;4486205;31;20080;-65
2022/01/19 05:46:16;;;;;;;28.77;11.93;;;;;;;-4.22;88.27;102035.78;4486446;31;20367;-65
2022/01/19 05:48:44;;;;;;;28.87;11.55;;;;;;;-4.29;89.34;102035.22;4485772;31;20096;-65
2022/01/19 05:51:12;;;;;;;24.98;10.70;;;;;;;-4.13;88.55;102027.88;4486196;31;20129;-65
2022/01/19 05:53:40;;;;;;;32.90;11.50;;;;;;;-4.37;89.08;102021.81;4486539;31;20088;-65
2022/01/19 05:56:08;;;;;;;29.50;10.65;;;;;;;-4.32;88.71;102025.59;4486401;31;20096;-65
2022/01/19 05:58:37;;;;;;;28.52;10.73;;;;;;;-4.36;88.76;102024.47;4486376;31;20550;-65
2022/01/19 06:01:04;;;;;;;33.80;11.85;;;;;;;-4.35;88.11;102036.59;4486437;31;20433;-66
2022/01/19 06:03:34;;;;;;;28.87;11.43;;;;;;;-4.35;87.90;102025.38;4486303;31;20076;-65
2022/01/19 06:06:02;;;;;;;39.25;11.65;;;;;;;-4.13;87.66;102027.88;4486268;31;20448;-65
2022/01/19 06:08:40;;;;;;;34.92;11.57;;;;;;;-4.15;86.90;102029.41;4486476;31;20110;-65
2022/01/19 06:11:09;;;;;;;43.85;13.23;;;;;;;-4.23;87.45;102038.28;4485981;31;20524;-65
2022/01/19 06:13:36;;;;;;;34.20;12.82;;;;;;;-4.39;88.34;102049.09;4486007;31;20118;-65
2022/01/19 06:16:05;;;;;;;34.53;12.57;;;;;;;-4.33;87.99;102035.00;4471296;31;20119;-65
2022/01/19 06:18:34;;;;;;;64.80;21.35;;;;;;;-4.47;88.32;102035.66;4484891;31;20091;-65
2022/01/19 06:21:02;;;;;;;87.37;28.40;;;;;;;-4.86;90.53;102031.84;4485822;31;20112;-65
2022/01/19 06:23:30;;;;;;;58.30;21.83;;;;;;;-5.04;91.83;102033.03;4486383;31;20604;-65
2022/01/19 06:25:59;;;;;;;65.05;21.20;;;;;;;-4.97;91.30;102042.09;4490113;31;20679;-67
2022/01/19 06:28:26;;;;;;;49.97;20.37;;;;;;;-4.73;89.75;102036.28;4497619;31;20170;-65
2022/01/19 06:30:53;;;;;;;50.05;17.58;;;;;;;-4.42;88.23;102044.59;4500886;31;20103;-66
2022/01/19 06:33:21;;;;;;;38.22;15.45;;;;;;;-4.54;88.65;102043.69;4501919;31;20371;-65
2022/01/19 06:35:49;;;;;;;45.53;16.40;;;;;;;-4.32;87.39;102046.19;4502157;31;20183;-65
2022/01/19 06:38:17;;;;;;;47.00;16.83;;;;;;;-4.36;88.99;102049.31;4502204;31;20095;-66
2022/01/19 06:40:46;;;;;;;43.97;15.40;;;;;;;-4.29;88.36;102050.66;4501782;31;20126;-65
2022/01/19 06:43:14;;;;;;;43.78;16.35;;;;;;;-4.13;86.48;102040.75;4501943;31;20551;-65
2022/01/19 06:45:41;;;;;;;48.13;19.77;;;;;;;-4.11;86.29;102037.47;4501600;31;20121;-65
2022/01/19 06:48:08;;;;;;;54.58;18.92;;;;;;;-4.16;86.35;102030.22;4501891;31;20083;-65
2022/01/19 06:50:36;;;;;;;45.85;18.08;;;;;;;-4.20;87.05;102026.53;4501811;31;20122;-65
2022/01/19 06:53:03;;;;;;;44.50;16.90;;;;;;;-4.06;86.13;102035.25;4501418;31;20102;-66
2022/01/19 06:55:31;;;;;;;40.40;15.23;;;;;;;-3.85;85.83;102021.38;4501890;31;20446;-65
2022/01/19 06:57:58;;;;;;;53.90;17.50;;;;;;;-3.73;85.33;102023.91;4501592;31;20195;-65
2022/01/19 07:00:28;;;;;;;49.55;16.80;;;;;;;-3.93;86.34;102024.16;4499866;31;20191;-65
2022/01/19 07:02:56;;;;;;;47.05;17.02;;;;;;;-3.85;86.10;102020.47;4501055;31;20079;-65
2022/01/19 07:05:27;;;;;;;53.75;17.98;;;;;;;-3.97;86.58;102028.19;4501362;31;20143;-66
2022/01/19 07:07:57;;;;;;;44.42;17.77;;;;;;;-4.01;86.72;102026.19;4501289;31;20103;-65
2022/01/19 07:10:24;;;;;;;59.20;21.35;;;;;;;-3.84;86.26;102006.81;4502104;31;20151;-64
2022/01/19 07:12:51;;;;;;;56.78;19.58;;;;;;;-4.02;87.51;102008.06;4501673;31;20147;-64
2022/01/19 07:15:19;;;;;;;68.05;21.77;;;;;;;-3.95;87.42;102008.59;4501319;31;20091;-64
2022/01/19 07:17:47;;;;;;;61.60;20.83;;;;;;;-3.81;86.78;102004.47;4501273;31;20099;-64
2022/01/19 07:20:14;;;;;;;54.05;20.17;;;;;;;-3.65;86.28;102006.44;4501552;31;20752;-65
2022/01/19 07:22:42;;;;;;;65.05;23.02;;;;;;;-3.61;86.18;102000.72;4501512;31;20095;-65
2022/01/19 07:25:10;;;;;;;53.90;21.25;;;;;;;-3.76;87.35;101991.91;4501539;31;20472;-66
2022/01/19 07:27:37;;;;;;;67.30;23.40;;;;;;;-3.52;86.66;101995.31;4501184;31;20088;-65
2022/01/19 07:30:06;;;;;;;58.13;21.83;;;;;;;-3.45;86.62;101990.72;4501425;31;20100;-66
2022/01/19 07:32:35;;;;;;;64.00;22.48;;;;;;;-3.09;84.78;101983.72;4501382;31;20109;-67
2022/01/19 07:35:05;;;;;;;55.97;23.42;;;;;;;-3.21;85.79;101983.78;4501026;31;20167;-65
2022/01/19 07:37:33;;;;;;;78.18;22.73;;;;;;;-3.15;85.82;101975.56;4501280;31;20102;-66
2022/01/19 07:40:01;;;;;;;59.65;21.17;;;;;;;-3.05;85.70;101980.56;4501729;31;20563;-66
2022/01/19 07:42:29;;;;;;;53.40;21.10;;;;;;;-2.80;84.50;101964.19;4501691;31;20099;-68
2022/01/19 07:45:00;;;;;;;52.67;21.50;;;;;;;-2.67;84.37;101962.53;4501884;31;20159;-68
2022/01/19 07:47:28;;;;;;;63.30;22.35;;;;;;;-2.51;83.67;101958.38;4501576;31;20162;-68
2022/01/19 07:49:57;;;;;;;48.28;18.58;;;;;;;-2.38;84.16;101955.81;4501444;31;20100;-67
2022/01/19 07:52:29;;;;;;;67.47;25.02;;;;;;;-2.21;83.82;101962.09;4501543;31;20121;-68
2022/01/19 07:54:57;;;;;;;51.75;18.73;;;;;;;-2.27;84.22;101956.50;4498882;31;20091;-66
2022/01/19 07:57:24;;;;;;;53.47;18.83;;;;;;;-2.22;83.84;101958.59;4501196;31;20516;-67
2022/01/19 07:59:54;;;;;;;47.92;17.62;;;;;;;-2.09;83.40;101960.28;4500995;31;20138;-66
2022/01/19 08:02:22;;;;;;;52.67;16.27;;;;;;;-1.84;82.28;101960.16;4501626;31;20140;-65
2022/01/19 08:04:55;;;;;;;45.50;16.30;;;;;;;-1.85;83.25;101960.06;4501930;31;20216;-65
2022/01/19 08:07:23;;;;;;;48.38;17.00;;;;;;;-1.74;82.42;101959.03;4501945;31;20155;-67
2022/01/19 08:09:50;;;;;;;49.78;18.05;;;;;;;-1.55;81.47;101951.66;4502026;31;20096;-67
2022/01/19 08:12:18;;;;;;;53.17;18.85;;;;;;;-1.53;81.91;101955.22;4500861;31;20118;-67
2022/01/19 08:14:45;;;;;;;44.45;18.10;;;;;;;-1.41;82.08;101955.09;4501886;31;20171;-66
2022/01/19 08:17:17;;;;;;;43.87;16.90;;;;;;;-1.38;81.76;101957.84;4501858;31;20156;-66
2022/01/19 08:19:45;;;;;;;54.03;22.23;;;;;;;-1.17;81.42;101957.38;4501631;31;20115;-66
2022/01/19 08:22:13;;;;;;;37.70;12.93;;;;;;;-0.93;82.32;101945.03;4502032;31;20083;-65
2022/01/19 08:24:42;;;;;;;32.17;15.43;;;;;;;-0.80;80.32;101944.97;4501975;31;20140;-66
2022/01/19 08:27:12;;;;;;;41.60;17.98;;;;;;;-0.70;80.35;101942.13;4501564;31;20127;-66
2022/01/19 08:29:40;;;;;;;51.60;18.30;;;;;;;-0.49;79.30;101932.13;4501374;31;20593;-68
2022/01/19 08:32:10;;;;;;;54.70;19.48;;;;;;;-0.42;78.68;101944.63;4500904;31;20084;-68
2022/01/19 08:35:00;;;;;;;46.22;18.15;;;;;;;-0.38;80.06;101941.38;4500884;31;20140;-67
2022/01/19 08:37:33;;;;;;;58.08;20.15;;;;;;;-0.54;80.50;101944.78;4500945;31;20440;-68
2022/01/19 08:40:03;;;;;;;51.25;18.95;;;;;;;-0.55;80.52;101937.81;4500821;31;20095;-66
2022/01/19 08:42:33;;;;;;;39.95;16.92;;;;;;;-0.22;80.58;101945.72;4500981;31;20079;-66
2022/01/19 08:45:05;;;;;;;47.08;14.85;;;;;;;-0.03;79.17;101938.19;4494912;31;20766;-66
2022/01/19 08:47:35;;;;;;;52.28;19.33;;;;;;;0.15;78.24;101940.03;4485518;31;20167;-68
2022/01/19 08:50:10;;;;;;;55.00;19.17;;;;;;;0.39;76.94;101941.38;4485001;31;20100;-68
2022/01/19 08:52:44;;;;;;;59.03;20.85;;;;;;;0.38;77.52;101951.63;4484846;31;20106;-68
2022/01/19 08:55:14;;;;;;;53.42;19.80;;;;;;;0.33;77.59;101943.62;4483823;31;20451;-65
2022/01/19 08:57:43;;;;;;;55.40;21.35;;;;;;;0.40;77.18;101939.66;4499040;31;20100;-67
2022/01/19 09:00:13;;;;;;;52.53;19.85;;;;;;;0.47;78.53;101946.97;4501194;31;20100;-66
2022/01/19 09:02:41;;;;;;;52.78;19.90;;;;;;;0.74;76.81;101933.66;4500865;31;20088;-66
2022/01/19 09:05:09;;;;;;;41.78;17.75;;;;;;;0.62;77.00;101940.00;4500573;31;20146;-66
2022/01/19 09:07:37;;;;;;;46.10;18.17;;;;;;;0.57;76.44;101928.50;4501282;31;20084;-67
2022/01/19 09:10:07;;;;;;;45.92;16.80;;;;;;;0.60;77.23;101930.34;4501330;31;20122;-67
2022/01/19 09:12:36;;;;;;;39.58;15.40;;;;;;;0.48;78.14;101940.97;4501346;31;20144;-67
2022/01/19 09:15:05;;;;;;;35.55;13.77;;;;;;;0.29;78.58;101938.19;4499189;31;20111;-66
2022/01/19 09:17:32;;;;;;;36.80;12.80;;;;;;;0.17;78.65;101933.22;4499966;31;20725;-66
2022/01/19 09:19:59;;;;;;;29.50;12.70;;;;;;;0.13;80.03;101937.34;4496919;31;20104;-66
2022/01/19 09:22:27;;;;;;;50.05;11.70;;;;;;;0.26;78.68;101936.31;4485883;31;20161;-67
2022/01/19 09:25:01;;;;;;;35.03;13.20;;;;;;;0.53;78.33;101931.75;4499913;31;20099;-67
2022/01/19 09:27:28;;;;;;;31.98;10.73;;;;;;;0.62;77.53;101931.31;4502402;31;20092;-68
2022/01/19 09:29:55;;;;;;;27.77;10.27;;;;;;;0.55;78.51;101937.00;4494995;31;20482;-67
2022/01/19 09:32:24;;;;;;;35.80;10.75;;;;;;;0.60;78.41;101932.94;4495490;31;20080;-67
2022/01/19 09:35:06;;;;;;;33.70;11.27;;;;;;;0.70;77.93;101925.72;4494725;31;20163;-66
2022/01/19 09:37:36;;;;;;;22.10;7.43;;;;;;;1.07;76.04;101921.56;4503169;31;20518;-66
2022/01/19 09:40:23;;;;;;;22.70;7.78;;;;;;;0.85;76.30;101923.06;4502946;31;20092;-66
2022/01/19 09:42:50;;;;;;;19.55;6.87;;;;;;;1.08;75.23;101915.56;4496534;31;20084;-67
2022/01/19 09:45:17;;;;;;;27.60;11.12;;;;;;;1.12;74.70;101897.59;4487238;31;20152;-67
2022/01/19 09:47:46;;;;;;;23.25;7.70;;;;;;;1.11;74.88;101913.12;4487779;31;20099;-66
2022/01/19 09:50:13;;;;;;;20.85;6.40;;;;;;;1.29;74.67;101913.16;4493945;31;20128;-66
2022/01/19 09:52:41;;;;;;;27.80;6.50;;;;;;;1.50;73.21;101895.16;4489186;31;20747;-66
2022/01/19 09:55:10;;;;;;;40.88;7.00;;;;;;;1.47;72.82;101893.28;4488465;31;20699;-66
2022/01/19 09:57:37;;;;;;;29.05;7.22;;;;;;;1.43;73.68;101883.56;4486269;31;20747;-66
2022/01/19 10:00:05;;;;;;;18.62;6.95;;;;;;;1.57;73.07;101879.06;4491652;31;20167;-66
2022/01/19 10:02:39;;;;;;;17.98;6.95;;;;;;;1.65;72.75;101869.91;4500680;31;20590;-66
2022/01/19 10:05:08;;;;;;;25.98;7.70;;;;;;;1.97;71.52;101870.53;4500167;31;20431;-67
2022/01/19 10:07:35;;;;;;;21.35;5.95;;;;;;;2.03;70.58;101865.62;4498637;31;20100;-68
2022/01/19 10:10:08;;;;;;;18.15;6.28;;;;;;;2.05;70.77;101854.50;4492679;31;20112;-65
2022/01/19 10:18:25;;;;;;;17.67;7.47;;;;;;;2.34;68.77;101840.22;4496262;31;20155;-66
2022/01/19 10:21:13;;;;;;;17.73;7.37;;;;;;;2.79;68.03;101832.66;4500217;31;20131;-66
2022/01/19 10:23:41;;;;;;;23.62;7.28;;;;;;;2.93;67.17;101822.78;4490535;31;20174;-67
2022/01/19 10:26:12;;;;;;;25.58;7.15;;;;;;;2.73;67.92;101818.47;4489640;31;20122;-67
2022/01/19 10:28:59;;;;;;;30.98;8.27;;;;;;;2.82;67.81;101817.13;4493719;31;20777;-68
2022/01/19 10:31:29;;;;;;;25.48;7.97;;;;;;;3.01;66.69;101808.41;4492218;31;20177;-67
2022/01/19 10:34:28;;;;;;;20.23;7.45;;;;;;;3.14;67.25;101807.19;4500989;31;20084;-67
2022/01/19 10:36:57;;;;;;;19.73;7.62;;;;;;;3.35;65.79;101802.84;4471517;31;20513;-66
2022/01/19 10:39:43;;;;;;;21.25;7.72;;;;;;;3.76;64.25;101789.66;4499499;31;20092;-67
2022/01/19 10:42:18;;;;;;;19.65;7.12;;;;;;;4.07;63.77;101778.69;4498471;31;20146;-66
2022/01/19 10:44:47;;;;;;;21.92;7.68;;;;;;;3.95;63.59;101783.41;4487112;31;20115;-66
2022/01/19 10:47:58;;;;;;;17.27;7.80;;;;;;;4.29;62.47;101775.13;4489655;31;20084;-67
2022/01/19 10:50:29;;;;;;;19.67;7.50;;;;;;;5.28;60.27;101773.28;4496987;31;20084;-66
2022/01/19 10:53:04;;;;;;;25.47;8.50;;;;;;;5.26;59.45;101767.12;4495753;31;20104;-67
2022/01/19 10:55:44;;;;;;;20.20;8.57;;;;;;;6.25;56.74;101756.97;4497989;31;20079;-67
2022/01/19 10:58:14;;;;;;;22.05;7.95;;;;;;;6.16;57.24;101753.28;4494521;31;20799;-67
2022/01/19 11:00:49;;;;;;;30.23;8.48;;;;;;;5.93;56.48;101746.50;4471812;31;20154;-67
2022/01/19 11:03:26;;;;;;;15.70;7.05;;;;;;;6.83;54.41;101742.81;4486494;31;20104;-66
2022/01/19 11:05:56;;;;;;;23.58;7.47;;;;;;;8.04;50.65;101738.56;4490664;31;20079;-66
2022/01/19 11:08:27;;;;;;;20.23;6.78;;;;;;;7.63;50.47;101729.81;4488758;31;20130;-68
2022/01/19 11:10:57;;;;;;;21.05;7.32;;;;;;;7.21;53.03;101727.12;4486652;31;20087;-68
2022/01/19 11:13:30;;;;;;;20.30;6.97;;;;;;;8.57;49.30;101724.72;4495344;31;20153;-68
2022/01/19 11:15:59;;;;;;;18.70;6.78;;;;;;;7.24;52.02;101722.84;4502057;31;20096;-66
2022/01/19 11:18:32;;;;;;;22.67;7.18;;;;;;;7.09;52.18;101719.88;4502225;31;20155;-67
2022/01/19 11:21:04;;;;;;;17.23;7.37;;;;;;;8.18;51.14;101704.72;4492752;31;20129;-68
2022/01/19 11:23:54;;;;;;;24.70;7.87;;;;;;;7.68;51.78;101701.09;4486360;31;20760;-66
2022/01/19 11:26:26;;;;;;;25.58;7.60;;;;;;;8.65;48.96;101701.22;4486100;31;20115;-67
2022/01/19 11:28:54;;;;;;;18.77;6.55;;;;;;;8.96;48.36;101690.34;4488947;31;20088;-66
2022/01/19 11:31:24;;;;;;;23.70;6.78;;;;;;;8.59;47.54;101689.75;4493579;31;20146;-68
2022/01/19 11:33:56;;;;;;;17.58;7.12;;;;;;;8.67;49.82;101687.25;4494582;31;20495;-68
2022/01/19 11:36:27;;;;;;;18.27;6.95;;;;;;;9.45;46.10;101684.91;4493413;31;20079;-67
2022/01/19 11:39:21;;;;;;;23.48;6.80;;;;;;;11.09;43.87;101668.16;4495732;31;20106;-68
2022/01/19 11:41:50;;;;;;;20.48;6.55;;;;;;;12.63;40.24;101658.13;4491156;31;20103;-66
2022/01/19 11:44:37;;;;;;;13.38;6.10;;;;;;;11.57;41.42;101661.41;4470448;31;20096;-67
2022/01/19 11:47:13;;;;;;;;;;;;;;;11.56;43.41;101657.00;4483260;31;20146;-67
2022/01/19 11:49:46;;;;;;;17.48;5.70;;;;;;;11.32;40.71;101642.78;4483479;31;19987;-68
2022/01/19 11:52:15;;;;;;;16.15;6.40;;;;;;;10.31;42.76;101652.59;4483240;31;20396;-68
2022/01/19 11:54:43;;;;;;;13.62;6.22;;;;;;;10.19;44.47;101641.91;4489232;31;20111;-68
2022/01/19 11:57:26;;;;;;;15.68;6.47;;;;;;;10.58;42.64;101641.41;4488239;31;20079;-68
2022/01/19 11:59:53;;;;;;;16.50;6.07;;;;;;;11.57;40.70;101637.63;4495461;31;20809;-67
2022/01/19 12:02:28;;;;;;;21.25;7.00;;;;;;;12.60;40.10;101638.75;4492110;31;20104;-68
2022/01/19 12:05:17;;;;;;;11.18;5.78;;;;;;;11.26;42.25;101634.84;4490756;31;20174;-68
2022/01/19 12:07:45;;;;;;;16.80;6.25;;;;;;;11.62;41.86;101625.31;4489432;31;20100;-68
2022/01/19 12:10:32;;;;;;;11.45;6.05;;;;;;;12.42;40.94;101619.34;4490029;31;20687;-69
2022/01/19 12:13:25;;;;;;;21.17;6.37;;;;;;;12.77;39.47;101622.88;4491500;31;20443;-67
2022/01/19 12:16:05;;;;;;;24.35;6.68;;;;;;;13.09;38.42;101606.94;4491354;31;20123;-67
2022/01/19 12:18:42;;;;;;;14.73;5.47;;;;;;;13.10;37.88;101611.34;4493995;31;20753;-68
2022/01/19 12:21:13;;;;;;;16.12;6.10;;;;;;;13.30;38.93;101598.97;4490565;31;20103;-68
2022/01/19 12:23:42;;;;;;;16.80;6.00;;;;;;;13.76;36.96;101596.09;4492062;31;20088;-68
2022/01/19 12:26:10;;;;;;;17.85;5.85;;;;;;;11.61;41.82;101587.47;4489913;31;20469;-67
2022/01/19 12:28:48;;;;;;;20.55;5.65;;;;;;;13.57;38.61;101584.75;4497549;31;20096;-67
2022/01/19 12:31:27;;;;;;;14.43;5.12;;;;;;;12.64;38.68;101595.56;4492265;31;20146;-67
2022/01/19 12:34:04;;;;;;;17.73;5.25;;;;;;;13.74;37.75;101584.62;4490326;31;20163;-68
2022/01/19 12:36:46;;;;;;;15.48;5.03;;;;;;;12.85;38.55;101584.94;4487147;31;20148;-68
2022/01/19 12:39:25;;;;;;;13.07;5.05;;;;;;;13.62;38.59;101572.34;4485668;31;20096;-68
2022/01/19 12:42:08;;;;;;;18.77;5.22;;;;;;;12.22;40.28;101575.31;4485714;31;20144;-67
2022/01/19 12:44:35;;;;;;;16.02;5.22;;;;;;;12.04;39.45;101571.75;4485585;31;20153;-67
2022/01/19 12:47:26;;;;;;;33.38;5.95;;;;;;;13.52;38.54;101562.69;4485002;31;20134;-69
2022/01/19 12:50:19;;;;;;;15.65;5.90;;;;;;;13.76;35.86;101548.41;4484940;31;20076;-69